Página principal
METAR-TAF:

METAR-TAF

Aeroportos :

Aeroporto Internacional Simón Bolívar

Caracas, Venezuela

latitude: 10-36N, longitude: 066-59W, altura: 43 m

Observação actual do tempo

O boletim foi feito há 14 minutos, às 04:03 UTC
Vento 3 kt de oeste
Temperatura 22°C
Humidade 73%
Pressão 1015 hPa

METAR: SVMI 230403Z AUTO 28003KT NCD 22/17 Q1015

Hora: 00:17 (04:17 UTC)

Previsão

O boletim foi feito há 6 horas e 17 minutos, às 22:00 UTC
Previsão válida de 23 às 00 UTC a 24 às 00 UTC
Vento 2 kt de es-sudeste
Visibilidade 10 km ou mais
Poucas nuvensa uma altura de 1600 ft
Temporariamente
de 23 às 03 UTC a 23 às 07 UTC
Vento 8 kt de nordeste
Visibilidade 10 km ou mais
Nuvens dispersasa uma altura de 1600 ft
Nuvens dispersasa uma altura de 8000 ft

TAF: SVMI 222200Z 2300/2400 11002KT 9999 FEW016 TX33/2319Z TN22/2308Z TEMPO 2303/2307 05008KT 9999 SCT016 SCT080

Observações e previsões do tempo de mais de 4000 aeroportos (mensagens METAR e TAF).

As estações disponíveis são os pontos amarelos e vermelhos sobre o mapa.

Mova o rato sobre o mapa para ver o nome da estação.

Depois clique no ponto para visualizar as observações e previsões meteorológicas.

Para alterar o mapa : clique nos botões verdes com uma cruz preta para aumentar o zoom; no botão verde com uma pitada de zoom; ou nas setas verdes para mapas adjacentes.


METAR-TAF: